createdAt,value
2018-12-06T00:01:27.829Z,7.78
2018-12-06T00:03:55.143Z,7.40
2018-12-06T00:06:22.591Z,7.20
2018-12-06T00:08:50.855Z,8.58
2018-12-06T00:11:18.120Z,7.60
2018-12-06T00:13:45.092Z,6.87
2018-12-06T00:16:12.705Z,7.05
2018-12-06T00:18:40.214Z,7.67
2018-12-06T00:21:07.818Z,6.33
2018-12-06T00:23:34.805Z,7.10
2018-12-06T00:26:02.362Z,7.05
2018-12-06T00:28:31.071Z,7.80
2018-12-06T00:30:58.347Z,6.15
2018-12-06T00:33:25.324Z,6.85
2018-12-06T00:35:52.623Z,7.58
2018-12-06T00:38:19.526Z,6.85
2018-12-06T00:40:46.722Z,7.00
2018-12-06T00:43:13.820Z,6.65
2018-12-06T00:45:40.984Z,6.08
2018-12-06T00:48:08.046Z,5.40
2018-12-06T00:50:35.023Z,6.00
2018-12-06T00:53:01.979Z,5.75
2018-12-06T00:55:30.265Z,6.40
2018-12-06T00:57:57.240Z,5.62
2018-12-06T01:00:25.263Z,5.90
2018-12-06T01:02:52.406Z,7.03
2018-12-06T01:05:19.459Z,6.10
2018-12-06T01:07:47.270Z,5.85
2018-12-06T01:10:14.567Z,6.83
2018-12-06T01:12:42.041Z,5.97
2018-12-06T01:15:09.069Z,5.85
2018-12-06T01:17:36.600Z,5.42
2018-12-06T01:20:03.830Z,5.83
2018-12-06T01:22:30.844Z,4.80
2018-12-06T01:24:58.220Z,6.22
2018-12-06T01:27:25.448Z,5.60
2018-12-06T01:29:52.521Z,6.28
2018-12-06T01:32:19.786Z,4.70
2018-12-06T01:34:47.103Z,5.30
2018-12-06T01:37:14.349Z,5.47
2018-12-06T01:39:41.304Z,6.30
2018-12-06T01:42:08.483Z,6.30
2018-12-06T01:44:35.818Z,5.85
2018-12-06T01:47:05.489Z,6.67
2018-12-06T01:49:32.820Z,5.62
2018-12-06T01:52:00.149Z,5.80
2018-12-06T01:54:27.270Z,5.10
2018-12-06T01:56:54.412Z,6.33
2018-12-06T01:59:21.351Z,5.80
2018-12-06T02:01:48.701Z,6.12
2018-12-06T02:04:16.625Z,5.95
2018-12-06T02:06:44.284Z,5.78
2018-12-06T02:09:11.812Z,6.87
2018-12-06T02:11:39.184Z,6.70
2018-12-06T02:14:06.321Z,5.92
2018-12-06T02:16:33.429Z,6.33
2018-12-06T02:19:00.468Z,5.85
2018-12-06T02:21:27.822Z,6.10
2018-12-06T02:23:54.982Z,6.35
2018-12-06T02:26:22.073Z,6.95
2018-12-06T02:28:49.094Z,8.45
2018-12-06T02:31:16.300Z,6.55
2018-12-06T02:33:44.391Z,7.55
2018-12-06T02:36:11.462Z,6.97
2018-12-06T02:38:38.443Z,6.17
2018-12-06T02:41:06.243Z,6.65
2018-12-06T02:43:33.418Z,6.25
2018-12-06T02:46:00.609Z,7.37
2018-12-06T02:48:27.993Z,6.20
2018-12-06T02:50:55.014Z,5.95
2018-12-06T02:53:22.389Z,7.33
2018-12-06T02:55:49.192Z,6.20
2018-12-06T02:58:16.423Z,7.30
2018-12-06T03:00:43.520Z,6.90
2018-12-06T03:03:10.880Z,6.40
2018-12-06T03:05:38.593Z,6.70
2018-12-06T03:08:06.041Z,6.12
2018-12-06T03:10:33.527Z,7.05
2018-12-06T03:13:00.783Z,5.72
2018-12-06T03:15:27.962Z,7.00
2018-12-06T03:17:55.327Z,5.80
2018-12-06T03:20:22.410Z,6.30
2018-12-06T03:22:49.688Z,6.45
2018-12-06T03:25:16.653Z,7.08
2018-12-06T03:27:43.793Z,5.37
2018-12-06T03:30:11.101Z,5.50
2018-12-06T03:32:38.765Z,7.25
2018-12-06T03:35:05.797Z,6.87
2018-12-06T03:37:32.985Z,6.10
2018-12-06T03:40:00.082Z,6.65
2018-12-06T03:42:27.327Z,6.58
2018-12-06T03:44:54.109Z,6.30
2018-12-06T03:47:21.405Z,6.40
2018-12-06T03:49:49.118Z,6.75
2018-12-06T03:52:17.194Z,6.80
2018-12-06T03:54:44.540Z,6.05
2018-12-06T03:57:11.720Z,6.35
2018-12-06T03:59:39.084Z,6.58
2018-12-06T04:02:06.723Z,6.60
2018-12-06T04:04:33.965Z,5.45
2018-12-06T04:07:01.533Z,5.78
2018-12-06T04:09:28.671Z,6.40
2018-12-06T04:11:56.531Z,5.30
2018-12-06T04:14:23.997Z,5.50
2018-12-06T04:16:50.965Z,5.40
2018-12-06T04:19:18.116Z,5.28
2018-12-06T04:21:45.392Z,6.60
2018-12-06T04:24:13.310Z,6.15
2018-12-06T04:26:40.514Z,6.35
2018-12-06T04:29:07.823Z,6.47
2018-12-06T04:31:35.108Z,5.37
2018-12-06T04:34:02.165Z,5.75
2018-12-06T04:36:29.030Z,5.80
2018-12-06T04:38:56.825Z,4.92
2018-12-06T04:41:24.295Z,6.15
2018-12-06T04:43:51.301Z,5.00
2018-12-06T04:46:19.504Z,6.55
2018-12-06T04:48:46.822Z,5.70
2018-12-06T04:51:13.970Z,5.65
2018-12-06T04:53:41.422Z,5.53
2018-12-06T04:56:09.056Z,4.90
2018-12-06T04:58:36.020Z,5.33
2018-12-06T05:01:03.188Z,5.72
2018-12-06T05:03:30.508Z,5.90
2018-12-06T05:05:58.080Z,5.42
2018-12-06T05:08:25.204Z,5.85
2018-12-06T05:10:52.189Z,5.20
2018-12-06T05:13:19.256Z,5.80
2018-12-06T05:15:46.462Z,6.53
2018-12-06T05:18:13.610Z,7.12
2018-12-06T05:20:40.784Z,5.92
2018-12-06T05:23:07.704Z,5.35
2018-12-06T05:25:35.018Z,6.55
2018-12-06T05:28:02.093Z,5.58
2018-12-06T05:30:29.360Z,5.95
2018-12-06T05:32:57.409Z,7.60
2018-12-06T05:35:24.106Z,6.50
2018-12-06T05:37:51.582Z,6.75
2018-12-06T05:40:18.689Z,6.45
2018-12-06T05:42:46.700Z,6.60
2018-12-06T05:45:14.446Z,7.05
2018-12-06T05:47:41.979Z,6.80
2018-12-06T05:50:09.371Z,7.25
2018-12-06T05:52:36.671Z,7.10
2018-12-06T05:55:03.739Z,6.53
2018-12-06T05:57:31.015Z,6.50
2018-12-06T05:59:57.883Z,7.53
2018-12-06T06:02:24.933Z,5.70
2018-12-06T06:04:52.846Z,6.42
2018-12-06T06:07:19.972Z,7.92
2018-12-06T06:09:47.048Z,7.60
2018-12-06T06:12:14.101Z,8.10
2018-12-06T06:14:41.529Z,9.08
2018-12-06T06:17:08.520Z,9.30
2018-12-06T06:19:35.644Z,10.18
2018-12-06T06:22:02.522Z,8.63
2018-12-06T06:24:29.578Z,9.83
2018-12-06T06:26:56.957Z,8.03
2018-12-06T06:29:25.172Z,9.20
2018-12-06T06:31:52.440Z,7.20
2018-12-06T06:34:19.738Z,8.98
2018-12-06T06:36:47.221Z,9.20
2018-12-06T06:39:14.544Z,9.05
2018-12-06T06:41:41.652Z,7.85
2018-12-06T06:44:08.706Z,8.15
2018-12-06T06:46:35.568Z,8.85
2018-12-06T06:49:02.779Z,8.05
2018-12-06T06:51:29.809Z,8.10
2018-12-06T06:53:57.101Z,8.15
2018-12-06T06:56:24.449Z,8.40
2018-12-06T06:58:51.516Z,7.95
2018-12-06T07:01:19.027Z,7.47
2018-12-06T07:03:46.302Z,9.75
2018-12-06T07:06:13.442Z,8.93
2018-12-06T07:08:40.614Z,9.18
2018-12-06T07:11:08.386Z,9.95
2018-12-06T07:13:36.097Z,10.08
2018-12-06T07:16:03.193Z,8.25
2018-12-06T07:18:30.483Z,8.48
2018-12-06T07:20:57.497Z,7.50
2018-12-06T07:23:28.413Z,8.23
2018-12-06T07:25:55.535Z,8.65
2018-12-06T07:28:23.018Z,7.58
2018-12-06T07:30:50.369Z,7.40
2018-12-06T07:33:17.393Z,7.25
2018-12-06T07:35:44.628Z,7.10
2018-12-06T07:38:11.820Z,6.58
2018-12-06T07:40:38.876Z,8.43
2018-12-06T07:43:05.984Z,7.30
2018-12-06T07:45:33.404Z,7.58
2018-12-06T07:48:00.487Z,8.10
2018-12-06T07:50:27.443Z,8.05
2018-12-06T07:52:54.852Z,7.00
2018-12-06T07:55:22.009Z,7.30
2018-12-06T07:57:49.379Z,7.95
2018-12-06T08:00:16.863Z,6.67
2018-12-06T08:02:44.003Z,7.10
2018-12-06T08:05:11.331Z,7.15
2018-12-06T08:07:38.655Z,7.62
2018-12-06T08:10:06.246Z,7.87
2018-12-06T08:12:33.246Z,7.37
2018-12-06T08:15:00.708Z,7.53
2018-12-06T08:17:28.438Z,7.20
2018-12-06T08:19:57.157Z,8.48
2018-12-06T08:22:24.674Z,7.47
2018-12-06T08:24:52.206Z,7.65
2018-12-06T08:27:19.310Z,6.53
2018-12-06T08:29:46.404Z,7.45
2018-12-06T08:32:13.353Z,8.30
2018-12-06T08:34:40.405Z,7.15
2018-12-06T08:37:07.304Z,10.93
2018-12-06T08:39:34.461Z,11.78
2018-12-06T08:42:01.447Z,8.35
2018-12-06T08:44:28.697Z,9.63
2018-12-06T08:46:55.831Z,8.65
2018-12-06T08:49:23.039Z,9.78
2018-12-06T08:51:50.438Z,8.20
2018-12-06T08:54:17.733Z,8.75
2018-12-06T08:56:44.869Z,9.63
2018-12-06T08:59:12.044Z,9.73
2018-12-06T09:01:39.007Z,9.75
2018-12-06T09:04:06.800Z,9.38
2018-12-06T09:06:33.864Z,11.10
2018-12-06T09:09:01.029Z,9.83
2018-12-06T09:11:28.425Z,9.63
2018-12-06T09:13:55.426Z,10.32
2018-12-06T09:16:23.172Z,10.20
2018-12-06T09:18:51.171Z,7.80
2018-12-06T09:21:18.545Z,8.65
2018-12-06T09:23:45.500Z,8.50
2018-12-06T09:26:12.607Z,8.68
2018-12-06T09:28:40.177Z,8.90
2018-12-06T09:31:07.221Z,9.43
2018-12-06T09:33:34.231Z,9.15
2018-12-06T09:36:01.459Z,9.05
2018-12-06T09:38:28.333Z,8.93
2018-12-06T09:40:55.589Z,8.90
2018-12-06T09:43:22.740Z,7.90
2018-12-06T09:45:50.151Z,8.53
2018-12-06T09:48:17.103Z,7.75
2018-12-06T09:50:44.185Z,10.20
2018-12-06T09:53:11.143Z,9.83
2018-12-06T09:55:38.305Z,9.78
2018-12-06T09:58:05.273Z,8.93
2018-12-06T10:00:32.564Z,9.43
2018-12-06T10:02:59.629Z,9.58
2018-12-06T10:05:27.326Z,9.98
2018-12-06T10:07:54.599Z,8.35
2018-12-06T10:10:21.530Z,9.63
2018-12-06T10:12:48.382Z,9.40
2018-12-06T10:15:15.382Z,9.35
2018-12-06T10:17:42.262Z,9.30
2018-12-06T10:20:09.096Z,10.40
2018-12-06T10:22:35.876Z,10.00
2018-12-06T10:25:02.929Z,10.32
2018-12-06T10:27:29.808Z,10.65
2018-12-06T10:29:56.656Z,11.25
2018-12-06T10:32:23.429Z,10.60
2018-12-06T10:34:53.412Z,9.63
2018-12-06T10:37:19.528Z,9.70
2018-12-06T10:39:46.585Z,8.93
2018-12-06T10:42:13.556Z,10.38
2018-12-06T10:44:40.422Z,10.35
2018-12-06T10:47:07.149Z,9.20
2018-12-06T10:49:34.249Z,10.50
2018-12-06T10:52:01.129Z,10.10
2018-12-06T10:54:27.830Z,10.53
2018-12-06T10:56:54.930Z,9.38
2018-12-06T10:59:21.820Z,10.65
2018-12-06T11:01:49.101Z,9.35
2018-12-06T11:04:15.943Z,9.93
2018-12-06T11:06:42.925Z,8.43
2018-12-06T11:09:09.885Z,8.33
2018-12-06T11:11:36.847Z,9.10
2018-12-06T11:14:03.712Z,9.05
2018-12-06T11:16:30.693Z,9.58
2018-12-06T11:18:57.553Z,9.95
2018-12-06T11:21:24.516Z,9.98
2018-12-06T11:23:51.487Z,8.63
2018-12-06T11:26:18.342Z,10.18
2018-12-06T11:28:45.203Z,9.18
2018-12-06T11:31:12.081Z,9.33
2018-12-06T11:33:38.946Z,9.88
2018-12-06T11:36:05.913Z,10.08
2018-12-06T11:38:32.683Z,9.78
2018-12-06T11:40:59.645Z,9.85
2018-12-06T11:43:26.915Z,9.30
2018-12-06T11:45:53.891Z,9.73
2018-12-06T11:48:26.792Z,9.20
2018-12-06T11:50:49.967Z,9.15
2018-12-06T11:53:16.785Z,9.25
2018-12-06T11:55:44.006Z,8.88
2018-12-06T11:58:11.591Z,8.90
2018-12-06T12:00:39.063Z,8.75
2018-12-06T12:03:05.922Z,9.88
2018-12-06T12:05:32.802Z,9.63
2018-12-06T12:07:59.760Z,9.18
2018-12-06T12:10:27.849Z,9.40
2018-12-06T12:12:54.925Z,8.50
2018-12-06T12:15:21.772Z,8.40
2018-12-06T12:17:48.547Z,8.60
2018-12-06T12:20:16.639Z,9.55
2018-12-06T12:22:43.497Z,10.23
2018-12-06T12:25:10.370Z,7.45
2018-12-06T12:27:37.135Z,8.25
2018-12-06T12:30:03.988Z,8.68
2018-12-06T12:32:31.068Z,8.50
2018-12-06T12:34:58.440Z,9.13
2018-12-06T12:37:25.299Z,8.03
2018-12-06T12:39:52.897Z,8.00
2018-12-06T12:42:19.945Z,8.03
2018-12-06T12:44:46.807Z,8.53
2018-12-06T12:47:13.583Z,8.38
2018-12-06T12:49:40.455Z,8.10
2018-12-06T12:52:07.322Z,6.90
2018-12-06T12:54:34.185Z,8.40
2018-12-06T12:57:01.140Z,8.05
2018-12-06T12:59:28.120Z,7.22
2018-12-06T13:01:54.972Z,7.60
2018-12-06T13:04:21.940Z,6.87
2018-12-06T13:06:48.700Z,7.90
2018-12-06T13:09:15.569Z,7.28
2018-12-06T13:11:42.440Z,6.92
2018-12-06T13:14:09.302Z,8.08
2018-12-06T13:16:36.262Z,7.20
2018-12-06T13:19:03.129Z,6.78
2018-12-06T13:21:29.894Z,7.80
2018-12-06T13:23:56.648Z,7.90
2018-12-06T13:26:23.523Z,7.67
2018-12-06T13:28:50.290Z,8.25
2018-12-06T13:31:17.146Z,7.72
2018-12-06T13:33:44.021Z,8.98
2018-12-06T13:36:10.885Z,7.95
2018-12-06T13:38:37.637Z,8.40
2018-12-06T13:41:05.537Z,7.97
2018-12-06T13:43:32.594Z,7.42
2018-12-06T13:45:59.548Z,8.80
2018-12-06T13:48:27.156Z,7.62
2018-12-06T13:50:54.116Z,7.58
2018-12-06T13:53:21.079Z,6.97
2018-12-06T13:55:47.939Z,8.50
2018-12-06T13:58:14.880Z,7.55
2018-12-06T14:00:42.067Z,8.23
2018-12-06T14:03:09.166Z,8.48
2018-12-06T14:05:36.119Z,6.65
2018-12-06T14:08:02.989Z,7.70
2018-12-06T14:10:29.955Z,7.15
2018-12-06T14:12:57.030Z,8.13
2018-12-06T14:15:23.990Z,7.45
2018-12-06T14:17:50.960Z,8.50
2018-12-06T14:20:17.712Z,8.08
2018-12-06T14:22:44.475Z,9.53
2018-12-06T14:25:11.355Z,7.80
2018-12-06T14:27:38.375Z,7.78
2018-12-06T14:30:06.500Z,8.15
2018-12-06T14:32:33.476Z,8.93
2018-12-06T14:35:00.554Z,9.50
2018-12-06T14:37:27.415Z,7.72
2018-12-06T14:39:54.375Z,7.58
2018-12-06T14:42:21.237Z,8.43
2018-12-06T14:44:48.095Z,7.45
2018-12-06T14:47:15.303Z,7.35
2018-12-06T14:49:42.817Z,9.03
2018-12-06T14:52:09.615Z,7.72
2018-12-06T14:54:36.494Z,8.08
2018-12-06T14:57:03.235Z,8.98
2018-12-06T14:59:30.110Z,10.00
2018-12-06T15:01:57.034Z,9.13
2018-12-06T15:04:24.050Z,9.80
2018-12-06T15:06:50.871Z,9.20
2018-12-06T15:09:17.750Z,10.03
2018-12-06T15:11:44.845Z,10.50
2018-12-06T15:14:11.703Z,12.07
2018-12-06T15:16:38.703Z,11.30
2018-12-06T15:19:06.099Z,12.93
2018-12-06T15:21:33.239Z,12.65
2018-12-06T15:24:00.254Z,14.35
2018-12-06T15:26:27.166Z,14.90
2018-12-06T15:28:54.330Z,13.00
2018-12-06T15:31:21.908Z,12.20
2018-12-06T15:33:49.496Z,13.90
2018-12-06T15:36:16.570Z,12.68
2018-12-06T15:38:43.514Z,13.75
2018-12-06T15:41:10.824Z,12.10
2018-12-06T15:43:37.747Z,12.10
2018-12-06T15:46:04.941Z,11.78
2018-12-06T15:48:31.717Z,12.65
2018-12-06T15:50:58.716Z,11.43
2018-12-06T15:53:25.586Z,10.45
2018-12-06T15:55:53.746Z,11.45
2018-12-06T15:58:21.095Z,10.85
2018-12-06T16:00:48.379Z,10.82
2018-12-06T16:03:15.662Z,10.63
2018-12-06T16:05:43.471Z,10.50
2018-12-06T16:08:11.274Z,10.90
2018-12-06T16:10:38.482Z,12.43
2018-12-06T16:13:05.780Z,13.88
2018-12-06T16:15:36.715Z,13.00
2018-12-06T16:18:05.548Z,15.30
2018-12-06T16:20:32.602Z,13.80
2018-12-06T16:23:00.287Z,19.90
2018-12-06T16:26:04.770Z,16.45
2018-12-06T16:28:32.111Z,15.70
2018-12-06T16:30:59.330Z,18.60
2018-12-06T16:33:26.791Z,19.80
2018-12-06T16:35:54.073Z,20.02
2018-12-06T16:38:21.920Z,20.08
2018-12-06T16:40:48.777Z,18.85
2018-12-06T16:43:16.208Z,22.25
2018-12-06T16:45:43.885Z,21.55
2018-12-06T16:48:12.404Z,23.38
2018-12-06T16:50:39.783Z,21.25
2018-12-06T16:53:06.940Z,24.35
2018-12-06T16:55:34.017Z,22.67
2018-12-06T16:58:01.987Z,19.48
2018-12-06T17:00:28.877Z,17.77
2018-12-06T17:02:56.263Z,18.27
2018-12-06T17:05:23.408Z,17.55
2018-12-06T17:07:50.534Z,17.10
2018-12-06T17:10:17.535Z,17.77
2018-12-06T17:12:44.614Z,17.55
2018-12-06T17:15:11.494Z,18.17
2018-12-06T17:17:38.794Z,17.75
2018-12-06T17:20:05.636Z,17.15
2018-12-06T17:22:32.473Z,17.90
2018-12-06T17:24:59.674Z,14.98
2018-12-06T17:27:26.854Z,15.78
2018-12-06T17:29:55.051Z,18.50
2018-12-06T17:32:22.298Z,17.40
2018-12-06T17:34:49.801Z,17.50
2018-12-06T17:37:16.849Z,18.10
2018-12-06T17:39:43.978Z,15.63
2018-12-06T17:42:11.400Z,15.15
2018-12-06T17:44:41.028Z,13.83
2018-12-06T17:47:08.460Z,14.28
2018-12-06T17:49:35.981Z,13.72
2018-12-06T17:52:04.541Z,13.70
2018-12-06T17:54:31.561Z,13.60
2018-12-06T17:56:58.821Z,13.70
2018-12-06T17:59:26.321Z,14.25
2018-12-06T18:01:53.593Z,13.93
2018-12-06T18:04:21.887Z,12.93
2018-12-06T18:06:48.846Z,13.53
2018-12-06T18:09:16.366Z,14.03
2018-12-06T18:11:43.402Z,13.50
2018-12-06T18:14:10.795Z,15.08
2018-12-06T18:16:39.242Z,21.55
2018-12-06T18:19:06.341Z,26.37
2018-12-06T18:21:33.720Z,31.82
2018-12-06T18:24:01.027Z,31.95
2018-12-06T18:26:30.743Z,31.12
2018-12-06T18:28:57.900Z,25.50
2018-12-06T18:31:25.017Z,23.12
2018-12-06T18:33:52.237Z,14.68
2018-12-06T18:36:19.098Z,13.18
2018-12-06T18:38:46.172Z,12.75
2018-12-06T18:41:13.172Z,12.45
2018-12-06T18:43:40.311Z,12.73
2018-12-06T18:46:07.290Z,12.28
2018-12-06T18:48:35.771Z,13.60
2018-12-06T18:51:02.740Z,12.30
2018-12-06T18:53:30.020Z,13.08
2018-12-06T18:55:57.496Z,16.27
2018-12-06T18:58:24.975Z,23.70
2018-12-06T19:00:52.043Z,22.82
2018-12-06T19:03:19.422Z,40.52
2018-12-06T19:05:46.843Z,61.63
2018-12-06T19:08:14.162Z,39.08
2018-12-06T19:10:41.822Z,31.85
2018-12-06T19:13:09.223Z,43.75
2018-12-06T19:15:36.637Z,51.30
2018-12-06T19:18:03.979Z,37.55
2018-12-06T19:20:31.263Z,30.45
2018-12-06T19:22:59.888Z,28.92
2018-12-06T19:25:27.035Z,27.48
2018-12-06T19:27:55.413Z,24.20
2018-12-06T19:30:22.400Z,20.65
2018-12-06T19:32:49.234Z,17.30
2018-12-06T19:35:16.334Z,16.93
2018-12-06T19:37:44.632Z,18.10
2018-12-06T19:40:11.969Z,17.55
2018-12-06T19:42:39.154Z,15.88
2018-12-06T19:45:09.722Z,18.65
2018-12-06T19:47:36.792Z,14.03
2018-12-06T19:50:04.072Z,13.30
2018-12-06T19:52:31.248Z,13.30
2018-12-06T19:54:58.167Z,12.20
2018-12-06T19:57:25.380Z,13.48
2018-12-06T19:59:52.661Z,11.33
2018-12-06T20:02:19.782Z,12.03
2018-12-06T20:04:47.182Z,11.53
2018-12-06T20:07:14.383Z,12.93
2018-12-06T20:09:41.986Z,15.98
2018-12-06T20:12:09.123Z,21.68
2018-12-06T20:14:36.713Z,16.60
2018-12-06T20:17:03.822Z,18.30
2018-12-06T20:19:35.159Z,19.35
2018-12-06T20:22:02.203Z,19.37
2018-12-06T20:24:30.267Z,19.98
2018-12-06T20:26:58.938Z,18.60
2018-12-06T20:29:26.393Z,17.30
2018-12-06T20:31:53.755Z,15.18
2018-12-06T20:34:21.855Z,14.75
2018-12-06T20:36:49.194Z,16.35
2018-12-06T20:39:16.643Z,13.85
2018-12-06T20:41:43.986Z,15.78
2018-12-06T20:44:11.579Z,13.93
2018-12-06T20:46:38.542Z,13.60
2018-12-06T20:49:05.595Z,12.78
2018-12-06T20:51:33.459Z,13.55
2018-12-06T20:54:01.260Z,12.58
2018-12-06T20:56:28.759Z,13.10
2018-12-06T20:58:56.936Z,13.03
2018-12-06T21:01:24.056Z,11.88
2018-12-06T21:03:51.355Z,12.58
2018-12-06T21:06:18.696Z,11.97
2018-12-06T21:08:45.931Z,12.93
2018-12-06T21:11:12.913Z,12.40
2018-12-06T21:13:40.095Z,11.65
2018-12-06T21:16:07.054Z,10.82
2018-12-06T21:18:34.463Z,12.20
2018-12-06T21:21:01.925Z,13.10
2018-12-06T21:23:29.286Z,14.68
2018-12-06T21:25:56.481Z,13.38
2018-12-06T21:28:23.518Z,16.25
2018-12-06T21:30:51.017Z,15.28
2018-12-06T21:33:18.694Z,15.43
2018-12-06T21:35:45.873Z,16.67
2018-12-06T21:38:13.013Z,17.00
2018-12-06T21:40:40.413Z,17.95
2018-12-06T21:43:08.192Z,18.52
2018-12-06T21:45:35.474Z,20.20
2018-12-06T21:48:02.779Z,18.15
2018-12-06T21:50:29.907Z,19.45
2018-12-06T21:52:56.942Z,17.37
2018-12-06T21:55:24.647Z,17.65
2018-12-06T21:57:51.749Z,17.70
2018-12-06T22:00:19.215Z,16.70
2018-12-06T22:02:46.473Z,17.50
2018-12-06T22:05:13.651Z,16.20
2018-12-06T22:07:40.743Z,19.52
2018-12-06T22:10:07.882Z,20.10
2018-12-06T22:12:35.966Z,100.87
2018-12-06T22:15:03.146Z,33.92
2018-12-06T22:17:30.049Z,20.68
2018-12-06T22:19:57.081Z,19.62
2018-12-06T22:22:24.981Z,18.42
2018-12-06T22:24:52.447Z,16.50
2018-12-06T22:27:19.523Z,15.90
2018-12-06T22:29:46.782Z,16.82
2018-12-06T22:32:13.575Z,15.05
2018-12-06T22:34:40.495Z,15.28
2018-12-06T22:37:07.585Z,15.75
2018-12-06T22:39:34.625Z,17.75
2018-12-06T22:42:01.639Z,15.50
2018-12-06T22:44:28.592Z,13.68
2018-12-06T22:46:55.755Z,14.30
2018-12-06T22:49:22.936Z,16.23
2018-12-06T22:51:49.810Z,14.40
2018-12-06T22:54:16.875Z,14.95
2018-12-06T22:56:44.305Z,14.47
2018-12-06T22:59:12.353Z,15.88
2018-12-06T23:01:39.485Z,15.15
2018-12-06T23:04:06.676Z,15.65
2018-12-06T23:06:33.649Z,12.50
2018-12-06T23:09:00.415Z,12.85
2018-12-06T23:11:27.590Z,11.97
2018-12-06T23:13:54.785Z,13.25
2018-12-06T23:16:21.960Z,16.50
2018-12-06T23:18:49.218Z,16.10
2018-12-06T23:21:16.536Z,13.35
2018-12-06T23:23:44.702Z,14.50
2018-12-06T23:26:12.284Z,14.90
2018-12-06T23:28:39.110Z,13.55
2018-12-06T23:31:06.506Z,13.05
2018-12-06T23:33:33.672Z,11.20
2018-12-06T23:36:00.852Z,12.20
2018-12-06T23:38:28.022Z,11.70
2018-12-06T23:40:55.082Z,11.50
2018-12-06T23:43:22.369Z,13.25
2018-12-06T23:45:49.732Z,12.20
2018-12-06T23:48:17.505Z,12.15
2018-12-06T23:50:45.205Z,13.10
2018-12-06T23:53:14.547Z,13.85
2018-12-06T23:55:41.882Z,15.63
2018-12-06T23:58:09.162Z,13.68
